Time;durP1;ratioP1;P1;durP2;ratioP2;P2;SDS_P1;SDS_P2;PMS_P1;PMS_P2;Temp;Humidity;BMP_temperature;BMP_pressure;BME280_temperature;BME280_humidity;BME280_pressure;Samples;Min_cycle;Max_cycle;Signal;HPM_P1;HPM_P2
2022/07/23 00:00:26;;;;;;;12.60;4.80;;;;;;;24.42;44.73;94625.66;5000440;28;20030;-90
2022/07/23 00:02:51;;;;;;;11.63;4.93;;;;;;;24.43;44.45;94624.53;4999732;28;20036;-90
2022/07/23 00:05:17;;;;;;;11.75;5.32;;;;;;;24.13;45.00;94622.34;5016510;28;20121;-90
2022/07/23 00:07:42;;;;;;;12.43;5.43;;;;;;;24.27;44.37;94624.56;4999948;28;20124;-91
2022/07/23 00:10:08;;;;;;;14.70;5.55;;;;;;;24.20;44.53;94620.94;4999850;28;20073;-90
2022/07/23 00:12:34;;;;;;;13.10;5.40;;;;;;;24.10;44.62;94617.69;5016005;28;20040;-90
2022/07/23 00:15:00;;;;;;;11.63;5.18;;;;;;;23.96;44.11;94620.03;4999719;28;20025;-91
2022/07/23 00:17:25;;;;;;;11.45;5.13;;;;;;;23.90;44.27;94616.03;5016488;28;20450;-90
2022/07/23 00:19:51;;;;;;;12.70;5.18;;;;;;;23.94;44.29;94622.25;4999585;28;20030;-90
2022/07/23 00:22:16;;;;;;;9.63;4.72;;;;;;;23.84;44.27;94616.31;4999880;28;20069;-90
2022/07/23 00:24:42;;;;;;;11.10;4.90;;;;;;;23.85;44.19;94606.38;5015700;28;20076;-90
2022/07/23 00:27:09;;;;;;;11.98;5.50;;;;;;;23.99;42.76;94611.28;5016886;28;20072;-90
2022/07/23 00:29:35;;;;;;;15.63;5.32;;;;;;;24.29;42.42;94616.19;5016181;28;20114;-90
2022/07/23 00:32:00;;;;;;;18.25;5.25;;;;;;;24.07;42.77;94609.59;5016075;28;20100;-91
2022/07/23 00:34:26;;;;;;;17.77;5.00;;;;;;;24.03;42.19;94606.81;5016400;28;20029;-90
2022/07/23 00:36:53;;;;;;;16.05;5.43;;;;;;;23.92;43.33;94606.56;5016908;28;20065;-90
2022/07/23 00:39:20;;;;;;;12.48;4.95;;;;;;;23.69;43.61;94598.38;5016779;28;20053;-90
2022/07/23 00:41:46;;;;;;;12.68;4.80;;;;;;;23.58;43.99;94606.13;5032191;28;20033;-90
2022/07/23 00:44:25;;;;;;;14.65;4.60;;;;;;;23.73;42.58;94607.25;5015942;28;20454;-91
2022/07/23 00:46:57;;;;;;;12.77;4.40;;;;;;;23.65;42.37;94598.28;5016898;28;20044;-91
2022/07/23 00:49:28;;;;;;;12.80;4.65;;;;;;;23.52;43.59;94597.56;5032087;28;20073;-90
2022/07/23 00:51:54;;;;;;;10.60;4.65;;;;;;;23.42;43.11;94601.53;4999583;28;20121;-90
2022/07/23 00:54:23;;;;;;;9.00;4.38;;;;;;;23.42;42.75;94598.88;5015831;28;20117;-91
2022/07/23 00:56:51;;;;;;;17.00;4.45;;;;;;;23.43;42.14;94594.31;5015883;28;20034;-91
2022/07/23 00:59:17;;;;;;;14.15;4.43;;;;;;;23.42;42.51;94596.19;5015347;28;20033;-91
2022/07/23 01:01:47;;;;;;;11.95;4.57;;;;;;;23.43;42.49;94583.63;5015808;28;20469;-91
2022/07/23 01:04:14;;;;;;;7.40;3.80;;;;;;;23.40;42.73;94592.31;5015557;28;20381;-90
2022/07/23 01:06:40;;;;;;;9.30;3.90;;;;;;;23.40;42.04;94587.75;4999275;28;20022;-90
2022/07/23 01:09:07;;;;;;;14.20;4.68;;;;;;;23.27;42.15;94583.59;4999552;28;20304;-90
2022/07/23 01:11:36;;;;;;;8.82;4.47;;;;;;;23.25;42.96;94575.91;5015658;28;20129;-90
2022/07/23 01:14:15;;;;;;;9.85;4.10;;;;;;;23.29;42.05;94579.47;5015411;28;20026;-90
2022/07/23 01:16:42;;;;;;;12.05;4.07;;;;;;;23.32;44.29;94586.03;5002140;28;20068;-90
2022/07/23 01:19:08;;;;;;;17.58;4.65;;;;;;;23.34;44.76;94580.31;5018643;28;20030;-91
2022/07/23 01:21:42;;;;;;;12.73;4.93;;;;;;;23.39;42.73;94577.41;5035281;28;20037;-90
2022/07/23 01:24:08;;;;;;;8.57;4.20;;;;;;;23.35;42.06;94579.19;5002646;28;20038;-91
2022/07/23 01:26:34;;;;;;;18.23;4.35;;;;;;;23.52;40.28;94576.19;5018752;28;20443;-90
2022/07/23 01:28:59;;;;;;;9.57;3.47;;;;;;;23.55;40.86;94577.41;5018625;28;20021;-90
2022/07/23 01:31:25;;;;;;;12.30;4.03;;;;;;;23.47;41.03;94576.44;5035168;28;20030;-90
2022/07/23 01:33:51;;;;;;;11.25;4.00;;;;;;;23.48;41.07;94574.56;5035132;28;20026;-90
2022/07/23 01:36:19;;;;;;;9.55;4.28;;;;;;;23.52;41.36;94573.50;5035156;28;20037;-91
2022/07/23 01:38:44;;;;;;;6.57;3.50;;;;;;;23.47;41.19;94570.34;5019023;28;20025;-91
2022/07/23 01:41:09;;;;;;;13.75;4.72;;;;;;;23.39;41.09;94570.16;5035065;28;20447;-90
2022/07/23 01:43:35;;;;;;;7.22;4.07;;;;;;;23.39;40.91;94569.41;5019608;28;20026;-91
2022/07/23 01:46:00;;;;;;;12.38;3.55;;;;;;;23.47;40.64;94571.09;5018498;28;20053;-91
2022/07/23 01:48:26;;;;;;;11.55;3.63;;;;;;;23.44;39.95;94567.22;5018389;28;20343;-91
2022/07/23 01:50:51;;;;;;;9.80;4.00;;;;;;;23.49;39.97;94566.19;5034868;28;20030;-90
2022/07/23 01:53:17;;;;;;;12.45;3.90;;;;;;;23.71;39.37;94561.34;5034725;28;20025;-90
2022/07/23 01:55:43;;;;;;;8.85;3.53;;;;;;;23.64;40.37;94566.53;5019291;28;20034;-91
2022/07/23 01:58:08;;;;;;;10.32;4.38;;;;;;;23.80;39.38;94563.84;5018140;28;20086;-91
2022/07/23 02:00:34;;;;;;;12.60;4.22;;;;;;;23.99;38.81;94568.47;5034599;28;20061;-90
2022/07/23 02:03:00;;;;;;;12.38;3.88;;;;;;;23.98;39.75;94573.03;5018139;28;20084;-91
2022/07/23 02:05:28;;;;;;;10.68;4.18;;;;;;;23.76;40.16;94566.44;5037483;28;20051;-92
2022/07/23 02:07:54;;;;;;;9.68;4.07;;;;;;;23.74;40.04;94568.69;5037828;28;20405;-90
2022/07/23 02:10:20;;;;;;;10.13;4.28;;;;;;;23.90;38.83;94560.66;5037575;28;20056;-89
2022/07/23 02:12:45;;;;;;;12.00;4.00;;;;;;;24.01;40.33;94568.91;5018154;28;20387;-91
2022/07/23 02:15:11;;;;;;;11.00;4.43;;;;;;;23.53;41.03;94559.03;5028664;28;20040;-92
2022/07/23 02:17:37;;;;;;;7.95;4.03;;;;;;;23.67;40.78;94573.84;5031857;28;20053;-91
2022/07/23 02:20:02;;;;;;;8.55;3.88;;;;;;;23.27;41.30;94560.31;5017750;28;20030;-91
2022/07/23 02:22:28;;;;;;;11.60;4.25;;;;;;;23.15;40.92;94563.03;5019082;28;20026;-93
2022/07/23 02:24:53;;;;;;;15.70;4.60;;;;;;;23.25;40.58;94567.88;5017744;28;20030;-90
2022/07/23 02:27:19;;;;;;;13.23;4.55;;;;;;;23.18;41.39;94570.38;5000453;28;20045;-92
2022/07/23 02:29:46;;;;;;;15.35;4.90;;;;;;;23.34;41.04;94570.41;5018298;28;20415;-90
2022/07/23 02:32:14;;;;;;;18.50;5.18;;;;;;;23.58;40.26;94572.13;5019036;28;20093;-90
2022/07/23 02:34:51;;;;;;;13.80;4.43;;;;;;;23.71;39.51;94570.13;5019331;28;20427;-91
2022/07/23 02:37:26;;;;;;;8.38;4.20;;;;;;;23.78;39.64;94572.22;5018704;28;20034;-91
2022/07/23 02:39:53;;;;;;;8.77;4.50;;;;;;;23.60;39.73;94574.47;5017436;28;20033;-91
2022/07/23 02:42:19;;;;;;;6.72;4.03;;;;;;;23.48;40.89;94577.25;5017724;28;20035;-92
2022/07/23 02:44:44;;;;;;;9.82;4.50;;;;;;;23.47;40.36;94575.69;5016979;28;20354;-91
2022/07/23 02:47:12;;;;;;;10.25;4.28;;;;;;;23.34;40.92;94577.66;5018447;28;20029;-92
2022/07/23 02:49:37;;;;;;;10.07;4.53;;;;;;;23.42;40.31;94582.06;5017145;28;20032;-90
2022/07/23 02:52:04;;;;;;;14.93;4.60;;;;;;;23.51;39.92;94579.97;5017160;28;20030;-92
2022/07/23 02:54:32;;;;;;;12.15;5.03;;;;;;;23.88;38.57;94583.50;5000973;28;20427;-90
2022/07/23 02:56:58;;;;;;;10.60;4.32;;;;;;;23.68;40.66;94588.81;5001033;28;20100;-91
2022/07/23 02:59:33;;;;;;;8.40;4.32;;;;;;;23.82;39.60;94585.66;5017139;28;20026;-90
2022/07/23 03:01:59;;;;;;;11.52;4.47;;;;;;;24.05;38.07;94582.41;5017199;28;20034;-91
2022/07/23 03:04:26;;;;;;;11.48;4.45;;;;;;;24.35;37.45;94582.66;5016880;28;20057;-91
2022/07/23 03:06:52;;;;;;;6.72;4.15;;;;;;;24.53;37.06;94580.34;5016999;28;20026;-90
2022/07/23 03:09:17;;;;;;;13.00;4.47;;;;;;;24.63;36.64;94592.41;5000871;28;20044;-92
2022/07/23 03:11:43;;;;;;;11.60;4.60;;;;;;;24.60;36.95;94587.75;5000676;28;20040;-91
2022/07/23 03:14:08;;;;;;;9.48;4.00;;;;;;;24.56;36.84;94587.66;5017010;28;20026;-92
2022/07/23 03:19:53;;;;;;;15.35;4.38;;;;;;;24.75;36.44;94590.72;5015787;28;20352;-92
2022/07/23 03:22:22;;;;;;;11.35;4.55;;;;;;;24.59;37.78;94585.41;5007436;28;20398;-90
2022/07/23 03:24:56;;;;;;;13.23;4.68;;;;;;;24.67;36.58;94595.16;5016602;28;20040;-91
2022/07/23 03:27:25;;;;;;;14.30;4.35;;;;;;;24.91;36.18;94582.63;5016739;28;20443;-90
2022/07/23 03:29:54;;;;;;;15.10;4.40;;;;;;;25.04;35.75;94585.94;5016540;28;20055;-90
2022/07/23 03:32:20;;;;;;;13.35;4.78;;;;;;;25.18;35.58;94588.88;5016591;28;20069;-91
2022/07/23 03:34:46;;;;;;;11.95;4.22;;;;;;;25.18;35.64;94591.53;5000235;28;20088;-91
2022/07/23 03:37:12;;;;;;;12.98;4.75;;;;;;;25.13;36.06;94591.84;5003677;28;20033;-90
2022/07/23 03:39:37;;;;;;;11.05;4.25;;;;;;;24.85;37.61;94596.31;5019346;28;20120;-90
2022/07/23 03:42:03;;;;;;;7.72;4.10;;;;;;;24.49;38.71;94600.13;5036060;28;20045;-91
2022/07/23 03:44:28;;;;;;;8.55;4.60;;;;;;;24.04;38.54;94597.66;5019671;28;20110;-91
2022/07/23 03:46:56;;;;;;;9.85;5.03;;;;;;;24.50;37.79;94597.13;5019896;28;20034;-91
2022/07/23 03:49:21;;;;;;;11.65;4.70;;;;;;;24.91;37.41;94602.16;5036904;28;20033;-91
2022/07/23 03:55:08;;;;;;;14.52;4.30;;;;;;;25.19;37.32;94606.50;5036923;28;20040;-92
2022/07/23 03:58:28;;;;;;;8.73;4.28;;;;;;;25.40;37.09;94606.09;5036173;28;20029;-91
2022/07/23 04:00:54;;;;;;;6.80;4.50;;;;;;;25.55;37.12;94617.09;5035770;28;20037;-91
2022/07/23 04:03:19;;;;;;;10.65;4.50;;;;;;;25.48;37.07;94617.75;5019586;28;20032;-92
2022/07/23 04:05:44;;;;;;;13.38;4.93;;;;;;;25.55;36.91;94612.53;5035629;28;20028;-91
2022/07/23 04:08:10;;;;;;;14.35;5.20;;;;;;;25.57;37.36;94612.16;5036734;28;20025;-91
2022/07/23 04:10:36;;;;;;;13.48;4.60;;;;;;;25.64;36.90;94611.50;5035748;28;20026;-90
2022/07/23 04:13:04;;;;;;;14.57;4.78;;;;;;;25.70;37.24;94618.13;5018808;28;20115;-89
2022/07/23 04:15:29;;;;;;;11.50;4.55;;;;;;;25.66;37.49;94611.91;5015880;28;20076;-89
2022/07/23 04:17:54;;;;;;;9.50;4.55;;;;;;;25.69;37.39;94619.25;4999681;28;20026;-88
2022/07/23 04:20:20;;;;;;;8.75;5.05;;;;;;;25.67;37.64;94622.28;4999852;28;20030;-88
2022/07/23 04:22:45;;;;;;;7.72;4.70;;;;;;;25.68;37.67;94620.41;4999589;28;20128;-89
2022/07/23 04:25:16;;;;;;;10.60;4.75;;;;;;;25.65;38.35;94621.09;5015759;28;20044;-91
2022/07/23 04:27:42;;;;;;;9.77;4.95;;;;;;;25.74;38.46;94618.94;5015648;28;20071;-89
2022/07/23 04:30:08;;;;;;;12.10;5.00;;;;;;;25.86;38.63;94614.53;4999600;28;20030;-89
2022/07/23 04:32:33;;;;;;;14.52;4.80;;;;;;;25.92;38.67;94615.78;5015627;28;20041;-88
2022/07/23 04:34:59;;;;;;;9.82;4.80;;;;;;;25.98;38.79;94617.78;5015874;28;20034;-88
2022/07/23 04:37:27;;;;;;;9.60;4.35;;;;;;;25.58;40.05;94624.44;4999556;28;20030;-88
2022/07/23 04:39:52;;;;;;;11.98;4.57;;;;;;;25.11;42.25;94626.28;4999708;28;20058;-87
2022/07/23 04:42:17;;;;;;;9.57;4.30;;;;;;;24.59;40.89;94625.59;5015643;28;20135;-88
2022/07/23 04:44:43;;;;;;;7.43;4.63;;;;;;;24.00;40.45;94624.31;5015759;28;20434;-88
2022/07/23 04:47:11;;;;;;;11.18;4.78;;;;;;;24.11;41.56;94623.81;5015580;28;20030;-88
2022/07/23 04:49:36;;;;;;;7.22;4.78;;;;;;;23.36;43.47;94620.84;5015793;28;20028;-87
2022/07/23 04:52:21;;;;;;;9.98;4.63;;;;;;;23.37;43.40;94625.06;5020358;28;20419;-87
2022/07/23 04:54:46;;;;;;;9.45;4.57;;;;;;;23.41;43.86;94623.28;5019424;28;20036;-87
2022/07/23 04:57:12;;;;;;;16.30;4.50;;;;;;;23.14;45.03;94620.28;5019565;28;20412;-87
2022/07/23 04:59:40;;;;;;;7.85;4.80;;;;;;;23.46;43.75;94612.34;5019173;28;20083;-87
2022/07/23 05:02:06;;;;;;;11.02;4.20;;;;;;;23.44;44.52;94611.91;5020703;28;20351;-88
2022/07/23 05:04:31;;;;;;;11.55;4.35;;;;;;;23.46;44.44;94609.66;5002772;28;20026;-87
2022/07/23 05:06:57;;;;;;;7.43;4.28;;;;;;;23.44;45.54;94603.88;5019105;28;20040;-87
2022/07/23 05:09:26;;;;;;;7.90;4.20;;;;;;;23.44;48.26;94603.88;5019080;28;20040;-87
2022/07/23 05:11:53;;;;;;;11.50;4.65;;;;;;;23.60;47.15;94609.25;5019304;28;20040;-87
2022/07/23 05:14:19;;;;;;;9.38;4.32;;;;;;;23.65;47.77;94603.63;5018880;28;20033;-86
2022/07/23 05:17:09;;;;;;;;;;;;;;;;;;;;;
2022/07/23 05:19:38;;;;;;;9.55;4.25;;;;;;;23.12;46.80;94615.25;5018612;28;20021;-87
2022/07/23 05:22:03;;;;;;;13.45;4.60;;;;;;;23.52;46.99;94608.25;5019947;28;20034;-87
2022/07/23 05:24:29;;;;;;;10.98;4.75;;;;;;;23.72;46.91;94613.72;5019627;28;20386;-87
2022/07/23 05:26:54;;;;;;;13.75;5.22;;;;;;;23.66;48.02;94604.38;5018772;28;20036;-87
2022/07/23 05:29:20;;;;;;;11.65;4.60;;;;;;;23.86;47.43;94607.94;5018711;28;20076;-86
2022/07/23 05:31:45;;;;;;;12.13;4.38;;;;;;;23.90;46.27;94606.13;5018434;28;20029;-87
2022/07/23 05:34:11;;;;;;;13.95;5.28;;;;;;;24.05;46.24;94599.22;5018683;28;20072;-87
2022/07/23 05:36:37;;;;;;;13.02;5.07;;;;;;;24.23;45.24;94602.28;5018565;28;20037;-86
2022/07/23 05:39:03;;;;;;;10.00;4.82;;;;;;;24.23;45.78;94610.31;5018207;28;20033;-89
2022/07/23 05:41:40;;;;;;;12.35;4.40;;;;;;;24.59;46.92;94610.31;5018202;28;20034;-89
2022/07/23 05:44:05;;;;;;;12.43;5.03;;;;;;;24.83;44.44;94611.19;5018391;28;20037;-88
2022/07/23 05:46:31;;;;;;;10.88;4.53;;;;;;;24.87;45.21;94613.94;5018347;28;20108;-88
2022/07/23 05:48:56;;;;;;;10.75;4.65;;;;;;;24.92;44.05;94605.63;5018376;28;20026;-88
2022/07/23 05:51:23;;;;;;;10.73;4.43;;;;;;;25.07;44.30;94612.81;5002245;28;20040;-91
2022/07/23 05:53:49;;;;;;;9.93;4.47;;;;;;;25.30;44.29;94616.66;5001911;28;20026;-89
2022/07/23 05:56:16;;;;;;;7.10;4.43;;;;;;;25.43;42.70;94607.31;5002196;28;20030;-88
2022/07/23 05:58:44;;;;;;;9.25;4.78;;;;;;;25.65;42.25;94608.47;5027773;28;20053;-89
2022/07/23 06:01:11;;;;;;;8.77;4.93;;;;;;;25.90;40.81;94607.31;5021233;28;20033;-90
2022/07/23 06:03:37;;;;;;;14.35;5.00;;;;;;;25.74;41.20;94604.75;5021625;28;20036;-87
2022/07/23 06:06:04;;;;;;;11.05;4.60;;;;;;;26.04;40.72;94612.09;5018038;28;20473;-89
2022/07/23 06:08:29;;;;;;;9.05;4.38;;;;;;;26.23;40.17;94608.56;5014194;28;20345;-88
2022/07/23 06:10:55;;;;;;;11.23;5.15;;;;;;;26.42;40.56;94607.69;5037837;28;20033;-88
2022/07/23 06:13:20;;;;;;;13.13;5.30;;;;;;;26.27;41.59;94603.25;5023696;28;20442;-87
2022/07/23 06:15:46;;;;;;;12.77;4.97;;;;;;;26.53;42.89;94610.50;5022268;28;20030;-88
2022/07/23 06:18:24;;;;;;;;;;;;;;;;;;;;;
2022/07/23 06:20:57;;;;;;;10.32;5.10;;;;;;;26.82;42.45;94608.16;5017365;28;20025;-88
2022/07/23 06:23:23;;;;;;;9.95;4.07;;;;;;;26.92;41.84;94599.50;5017586;28;20038;-88
2022/07/23 06:25:57;;;;;;;9.45;4.75;;;;;;;26.97;41.30;94595.69;5004947;28;20124;-88
2022/07/23 06:28:25;;;;;;;7.97;4.72;;;;;;;27.17;38.98;94607.06;5038613;28;20052;-88
2022/07/23 06:31:05;;;;;;;8.00;4.38;;;;;;;27.32;41.12;94599.88;5038493;28;20034;-88
2022/07/23 06:33:49;;;;;;;;;;;;;;;;;;;;;
2022/07/23 06:36:38;;;;;;;;;;;;;;;;;;;;;
2022/07/23 06:39:46;;;;;;;8.82;4.47;;;;;;;27.42;42.98;94598.47;5037905;28;20033;-88
2022/07/23 06:42:27;;;;;;;;;;;;;;;;;;;;;
2022/07/23 06:45:30;;;;;;;;;;;;;;;;;;;;;
2022/07/23 06:48:06;;;;;;;;;;;;;;;;;;;;;
2022/07/23 06:51:23;;;;;;;;;;;;;;;;;;;;;
2022/07/23 06:57:04;;;;;;;;;;;;;;;;;;;;;
2022/07/23 06:59:40;;;;;;;;;;;;;;;;;;;;;
2022/07/23 07:02:11;;;;;;;6.95;4.50;;;;;;;28.21;41.85;94605.63;5036653;28;20024;-89
2022/07/23 07:04:52;;;;;;;7.18;4.35;;;;;;;28.30;38.98;94610.69;5036794;28;20029;-88
2022/07/23 07:07:17;;;;;;;11.00;5.20;;;;;;;28.42;39.13;94605.00;5021131;28;20033;-89
2022/07/23 07:09:44;;;;;;;14.88;4.85;;;;;;;28.50;39.20;94614.66;5020326;28;20327;-89
2022/07/23 07:12:09;;;;;;;12.50;4.80;;;;;;;28.53;44.50;94613.13;5020255;28;20435;-89
2022/07/23 07:14:39;;;;;;;8.00;4.40;;;;;;;28.70;41.33;94613.59;5036039;28;20047;-89
2022/07/23 07:17:15;;;;;;;;;;;;;;;;;;;;;
2022/07/23 07:19:48;;;;;;;9.00;4.32;;;;;;;28.94;40.43;94625.66;5036162;28;20028;-88
2022/07/23 07:22:26;;;;;;;;;;;;;;;;;;;;;
2022/07/23 07:24:54;;;;;;;10.13;4.80;;;;;;;29.18;39.54;94624.19;5037419;28;20040;-89
2022/07/23 07:27:20;;;;;;;11.98;4.68;;;;;;;29.18;38.39;94624.19;5036468;28;20124;-89
2022/07/23 07:29:48;;;;;;;12.52;4.72;;;;;;;29.42;39.43;94618.47;5035980;28;20025;-89
2022/07/23 07:32:13;;;;;;;7.05;4.20;;;;;;;29.55;39.17;94619.66;5019972;28;20037;-89
2022/07/23 07:34:39;;;;;;;11.77;4.75;;;;;;;29.29;39.19;94626.16;5019815;28;20033;-88
2022/07/23 07:37:04;;;;;;;13.73;4.50;;;;;;;29.54;38.39;94622.72;5019840;28;20394;-87
2022/07/23 07:39:30;;;;;;;11.07;4.50;;;;;;;29.53;37.18;94619.28;5036066;28;20481;-88
2022/07/23 07:41:55;;;;;;;16.05;5.38;;;;;;;29.64;35.75;94619.28;5036020;28;20029;-88
2022/07/23 07:44:47;;;;;;;;;;;;;;;;;;;;;
2022/07/23 07:47:15;;;;;;;8.68;4.35;;;;;;;29.36;36.67;94618.06;5035854;28;20457;-89
2022/07/23 07:50:01;;;;;;;;;;;;;;;;;;;;;
2022/07/23 07:52:39;;;;;;;;;;;;;;;;;;;;;
2022/07/23 07:55:06;;;;;;;12.38;4.63;;;;;;;30.11;36.99;94627.41;5035710;28;20342;-88
2022/07/23 07:57:32;;;;;;;15.57;4.63;;;;;;;30.27;36.84;94631.63;5019944;28;20411;-87
2022/07/23 07:59:58;;;;;;;10.65;4.75;;;;;;;30.54;38.74;94626.53;5035796;28;20037;-87
2022/07/23 08:02:23;;;;;;;11.30;4.20;;;;;;;30.71;34.92;94629.63;5019256;28;20033;-87
2022/07/23 08:04:48;;;;;;;6.45;3.80;;;;;;;30.90;33.91;94622.97;5036918;28;20034;-88
2022/07/23 08:07:14;;;;;;;11.25;4.30;;;;;;;30.84;35.07;94622.59;5035764;28;20056;-87
2022/07/23 08:09:40;;;;;;;8.95;5.00;;;;;;;30.94;35.23;94625.66;5036872;28;20033;-90
2022/07/23 08:12:12;;;;;;;13.88;4.45;;;;;;;31.08;34.74;94630.25;5018368;28;20078;-88
2022/07/23 08:14:38;;;;;;;11.05;4.40;;;;;;;31.11;33.24;94629.47;4999825;28;20331;-88
2022/07/23 08:17:11;;;;;;;11.10;4.65;;;;;;;31.05;33.92;94626.38;5017120;28;20037;-89
2022/07/23 08:19:36;;;;;;;8.13;4.00;;;;;;;31.14;34.54;94623.25;5016105;28;20038;-91
2022/07/23 08:22:01;;;;;;;12.93;4.38;;;;;;;31.25;34.35;94631.34;5015681;28;20040;-89
2022/07/23 08:24:27;;;;;;;6.93;4.10;;;;;;;31.33;34.19;94630.13;5015700;28;20040;-89
2022/07/23 08:26:52;;;;;;;9.35;4.15;;;;;;;31.37;35.28;94633.59;5019497;28;20038;-88
2022/07/23 08:29:18;;;;;;;11.75;4.30;;;;;;;31.52;33.58;94636.19;5003947;28;20033;-87
2022/07/23 08:31:45;;;;;;;10.82;4.30;;;;;;;31.50;34.02;94636.63;5020087;28;20132;-88
2022/07/23 08:34:10;;;;;;;14.35;4.60;;;;;;;31.33;34.04;94640.97;5003588;28;20079;-88
2022/07/23 08:36:36;;;;;;;9.20;4.57;;;;;;;31.47;33.87;94639.34;5020027;28;20382;-88
2022/07/23 08:39:03;;;;;;;10.80;4.25;;;;;;;31.64;34.22;94638.44;5003220;28;20030;-88
2022/07/23 08:41:29;;;;;;;11.23;4.45;;;;;;;31.76;33.81;94641.84;5019612;28;20116;-87
2022/07/23 08:43:54;;;;;;;8.18;4.32;;;;;;;31.94;34.89;94644.47;5019574;28;20108;-87
2022/07/23 08:46:20;;;;;;;9.15;4.80;;;;;;;31.97;34.60;94640.94;5019609;28;20087;-89
2022/07/23 08:48:48;;;;;;;9.20;4.35;;;;;;;31.80;32.88;94639.91;5019550;28;20025;-88
2022/07/23 08:51:14;;;;;;;9.07;4.57;;;;;;;31.87;34.06;94635.19;5003292;28;20573;-88
2022/07/23 08:53:41;;;;;;;6.35;4.32;;;;;;;32.11;32.81;94631.91;5003162;28;20074;-88
2022/07/23 08:56:07;;;;;;;7.00;4.18;;;;;;;32.25;33.17;94636.44;5003009;28;20030;-88
2022/07/23 08:58:32;;;;;;;11.18;4.70;;;;;;;32.38;35.56;94631.31;5002851;28;20041;-87
2022/07/23 09:01:16;;;;;;;8.27;4.25;;;;;;;32.45;35.18;94631.25;5003640;28;20033;-87
2022/07/23 09:03:44;;;;;;;11.10;4.55;;;;;;;32.55;34.70;94635.75;5019169;28;20037;-87
2022/07/23 09:06:10;;;;;;;7.13;4.60;;;;;;;32.38;33.70;94625.88;5003384;28;20036;-87
2022/07/23 09:08:42;;;;;;;10.55;4.60;;;;;;;32.50;36.05;94638.16;5002661;28;20025;-88
2022/07/23 09:11:13;;;;;;;5.60;4.07;;;;;;;32.30;34.47;94633.28;5019359;28;20029;-89
2022/07/23 09:13:45;;;;;;;9.95;4.55;;;;;;;32.08;34.01;94636.22;5002888;28;20037;-88
2022/07/23 09:16:25;;;;;;;10.83;4.60;;;;;;;31.82;34.58;94622.09;5003180;28;20095;-90
2022/07/23 09:18:53;;;;;;;11.57;4.78;;;;;;;31.65;34.44;94617.56;5003441;28;20037;-88
2022/07/23 09:21:55;;;;;;;12.25;4.45;;;;;;;32.03;33.56;94616.91;5003658;28;20068;-88
2022/07/23 09:24:21;;;;;;;14.35;4.30;;;;;;;32.40;34.07;94626.25;5020511;28;20025;-88
2022/07/23 09:26:50;;;;;;;11.40;4.57;;;;;;;32.32;32.75;94617.38;5019007;28;20030;-88
2022/07/23 09:29:24;;;;;;;10.75;4.30;;;;;;;32.44;32.45;94632.41;5018751;28;20029;-87
2022/07/23 09:31:57;;;;;;;9.68;4.40;;;;;;;31.80;32.64;94629.06;5006796;28;20427;-87
2022/07/23 09:34:24;;;;;;;16.87;4.80;;;;;;;32.13;34.24;94629.56;5018568;28;20069;-87
2022/07/23 09:36:56;;;;;;;9.32;4.93;;;;;;;32.43;31.98;94639.00;5017869;28;20179;-89
2022/07/23 09:39:29;;;;;;;10.13;4.43;;;;;;;32.13;33.05;94629.56;5002462;28;20080;-87
2022/07/23 09:41:58;;;;;;;9.70;4.78;;;;;;;32.13;33.45;94621.44;5018301;28;20426;-87
2022/07/23 09:44:23;;;;;;;10.23;4.82;;;;;;;32.24;34.17;94618.63;5002029;28;20038;-88
2022/07/23 09:46:52;;;;;;;9.70;4.55;;;;;;;32.35;33.64;94615.84;5001817;28;20044;-87
2022/07/23 09:49:22;;;;;;;13.98;4.63;;;;;;;32.40;33.85;94609.97;5018367;28;20109;-87
2022/07/23 09:51:57;;;;;;;11.05;4.50;;;;;;;32.41;33.55;94608.81;5018332;28;20061;-87
2022/07/23 09:54:30;;;;;;;13.18;4.70;;;;;;;32.25;33.42;94609.34;5018360;28;20042;-88
2022/07/23 09:56:57;;;;;;;8.20;4.53;;;;;;;32.64;33.38;94608.19;5018601;28;20030;-89
2022/07/23 09:59:26;;;;;;;10.70;4.88;;;;;;;32.70;33.92;94608.47;5018234;28;20034;-88
2022/07/23 10:01:54;;;;;;;13.15;4.70;;;;;;;33.13;34.69;94609.94;5018117;28;20030;-86
2022/07/23 10:04:21;;;;;;;8.65;4.70;;;;;;;33.35;33.53;94604.97;5017714;28;20026;-88
2022/07/23 10:06:48;;;;;;;10.57;5.03;;;;;;;33.02;34.73;94601.16;5019163;28;20339;-87
2022/07/23 10:09:19;;;;;;;13.68;4.90;;;;;;;33.06;33.02;94597.22;5018203;28;20432;-87
2022/07/23 10:11:44;;;;;;;12.32;4.70;;;;;;;32.62;34.33;94607.78;5017791;28;20435;-88
2022/07/23 10:14:10;;;;;;;15.27;5.63;;;;;;;32.68;35.08;94597.28;5017779;28;20033;-88
2022/07/23 10:16:36;;;;;;;8.60;4.80;;;;;;;32.95;33.55;94594.66;5017759;28;20034;-88
2022/07/23 10:19:02;;;;;;;8.55;4.82;;;;;;;33.01;33.94;94603.13;5017993;28;20038;-90
2022/07/23 10:21:39;;;;;;;13.88;5.57;;;;;;;32.90;34.33;94597.06;5017441;28;20041;-88
2022/07/23 10:24:26;;;;;;;13.68;5.32;;;;;;;33.16;34.25;94595.53;5017438;28;20339;-89
2022/07/23 10:27:10;;;;;;;8.88;5.10;;;;;;;33.27;33.78;94595.38;5022716;28;20403;-89
2022/07/23 10:29:44;;;;;;;10.20;4.63;;;;;;;33.37;34.32;94602.59;5019255;28;20036;-89
2022/07/23 10:32:29;;;;;;;13.90;5.10;;;;;;;33.66;34.49;94601.44;5017762;28;20097;-88
2022/07/23 10:34:56;;;;;;;10.05;4.53;;;;;;;33.46;33.49;94598.66;5017867;28;20033;-89
2022/07/23 10:37:59;;;;;;;;;;;;;;;;;;;;;
2022/07/23 10:40:37;;;;;;;11.73;4.70;;;;;;;33.63;32.93;94594.09;4999496;28;20040;-89
2022/07/23 10:43:22;;;;;;;11.77;5.32;;;;;;;33.55;33.94;94586.09;5017305;28;20030;-88
2022/07/23 10:45:48;;;;;;;8.75;5.32;;;;;;;33.50;33.63;94591.19;5017438;28;20022;-88
2022/07/23 10:48:18;;;;;;;20.13;5.75;;;;;;;33.31;33.95;94589.91;5016344;28;20080;-89
2022/07/23 10:51:07;;;;;;;10.45;5.68;;;;;;;33.51;32.40;94579.94;5016943;28;20049;-89
2022/07/23 10:53:51;;;;;;;15.68;5.45;;;;;;;33.94;33.33;94585.84;5017046;28;20030;-89
2022/07/23 10:56:55;;;;;;;11.98;5.53;;;;;;;34.25;32.79;94574.84;5018072;28;20029;-89
2022/07/23 10:59:22;;;;;;;13.80;4.70;;;;;;;34.66;32.14;94583.81;4994557;28;20034;-89
2022/07/23 11:01:47;;;;;;;15.60;6.20;;;;;;;34.53;31.97;94573.56;5016997;28;20048;-89
2022/07/23 11:04:13;;;;;;;12.98;5.63;;;;;;;34.79;31.33;94581.22;5016853;28;20065;-87
2022/07/23 11:06:48;;;;;;;13.90;4.95;;;;;;;34.75;32.39;94584.03;5016972;28;20032;-87
2022/07/23 11:09:26;;;;;;;10.32;5.22;;;;;;;34.54;32.20;94577.81;5017817;28;20136;-90
2022/07/23 11:12:16;;;;;;;25.77;16.02;;;;;;;34.93;32.50;94575.47;5016840;28;20119;-89
2022/07/23 11:14:58;;;;;;;16.15;5.53;;;;;;;34.99;32.14;94569.53;5016736;28;20103;-89
2022/07/23 11:17:26;;;;;;;15.00;5.88;;;;;;;34.42;31.56;94564.81;5000657;28;20033;-89
2022/07/23 11:20:07;;;;;;;13.75;5.53;;;;;;;34.17;32.22;94563.34;5016701;28;20030;-88
2022/07/23 11:22:43;;;;;;;11.75;5.18;;;;;;;34.42;33.01;94567.53;5016469;28;20095;-88
2022/07/23 11:25:10;;;;;;;12.93;5.25;;;;;;;34.33;32.34;94559.94;5016228;28;20034;-91
2022/07/23 11:27:44;;;;;;;12.85;5.10;;;;;;;34.76;32.28;94571.16;5016625;28;20026;-92
2022/07/23 11:30:30;;;;;;;13.25;5.20;;;;;;;34.96;32.01;94562.97;5016732;28;20018;-89
2022/07/23 11:33:08;;;;;;;14.27;5.63;;;;;;;34.66;32.05;94562.81;5017504;28;20562;-89
2022/07/23 11:35:36;;;;;;;13.63;5.32;;;;;;;34.87;32.75;94546.47;5016319;28;20029;-91
2022/07/23 11:38:07;;;;;;;9.73;4.90;;;;;;;33.34;33.35;94556.50;5016132;28;20481;-90
2022/07/23 11:40:33;;;;;;;19.00;5.85;;;;;;;32.04;36.33;94550.69;5016462;28;20021;-91
2022/07/23 11:43:09;;;;;;;17.67;5.60;;;;;;;32.68;35.82;94545.75;5016502;28;20403;-90
2022/07/23 11:45:51;;;;;;;11.30;5.45;;;;;;;32.90;36.32;94542.78;5017025;28;20032;-92
2022/07/23 11:48:47;;;;;;;14.55;5.47;;;;;;;33.56;34.42;94548.81;5000965;28;20026;-92
2022/07/23 11:51:35;;;;;;;;;;;;;;;;;;;;;
2022/07/23 11:54:12;;;;;;;10.27;5.25;;;;;;;34.34;32.79;94538.94;5017284;28;20036;-89
2022/07/23 11:57:04;;;;;;;12.35;5.47;;;;;;;34.33;32.23;94538.16;5036221;28;20029;-87
2022/07/23 11:59:38;;;;;;;13.27;5.30;;;;;;;34.37;32.95;94532.66;5036805;28;20032;-89
2022/07/23 12:02:16;;;;;;;;;;;;;;;;;;;;;
2022/07/23 12:04:54;;;;;;;;;;;;;;;;;;;;;
2022/07/23 12:07:33;;;;;;;;;;;;;;;;;;;;;
2022/07/23 12:10:16;;;;;;;9.15;5.18;;;;;;;34.66;28.42;94522.03;5037739;28;20018;-90
2022/07/23 12:12:55;;;;;;;10.35;5.38;;;;;;;34.62;29.26;94526.00;5036465;28;20037;-90
2022/07/23 12:15:52;;;;;;;;;;;;;;;;;;;;;
2022/07/23 12:18:28;;;;;;;7.35;4.55;;;;;;;34.70;29.03;94527.38;5034650;28;20029;-88
2022/07/23 12:21:08;;;;;;;;;;;;;;;;;;;;;